createdAt,value
2019-05-06T06:04:19.261Z,101120.63
2019-05-06T06:04:57.630Z,101133.83
2019-05-06T06:05:34.835Z,101128.33
2019-05-06T06:06:12.658Z,101123.73
2019-05-06T06:06:51.833Z,101123.73
2019-05-06T06:07:28.208Z,101176.08
2019-05-06T06:08:05.319Z,101182.95
2019-05-06T06:08:43.173Z,101152.92
2019-05-06T06:09:23.588Z,101166.11
2019-05-06T06:10:22.458Z,101240.31
2019-05-06T06:11:04.271Z,101225.73
2019-05-06T06:11:42.864Z,101262.48
2019-05-06T06:12:19.469Z,101287.86
2019-05-06T06:12:55.898Z,101280.96
2019-05-06T06:13:32.870Z,101290.47
2019-05-06T06:14:12.679Z,101288.66
2019-05-06T06:14:55.598Z,101292.73
2019-05-06T06:15:47.405Z,101282.20
2019-05-06T06:16:38.545Z,101303.43
2019-05-06T06:17:33.582Z,101268.75
2019-05-06T06:18:27.754Z,101248.38
2019-05-06T06:19:09.278Z,101248.38
2019-05-06T06:19:47.618Z,101282.22
2019-05-06T06:20:42.287Z,101253.97
2019-05-06T06:21:28.092Z,101253.97
2019-05-06T06:22:05.070Z,101301.93
2019-05-06T06:22:42.528Z,101301.93
2019-05-06T06:23:24.294Z,101327.23
2019-05-06T06:24:18.698Z,101327.23
2019-05-06T06:24:55.447Z,101314.03
2019-05-06T06:25:33.475Z,101316.23
2019-05-06T06:26:12.151Z,101299.00
2019-05-06T06:26:53.889Z,101300.77
2019-05-06T06:27:33.176Z,101315.21
2019-05-06T06:28:11.937Z,101316.02
2019-05-06T06:28:48.591Z,101316.02
2019-05-06T06:29:25.334Z,101299.07
2019-05-06T06:30:02.488Z,101299.07
2019-05-06T06:30:48.855Z,101302.64
2019-05-06T06:31:27.307Z,101310.67
2019-05-06T06:32:13.801Z,101333.59
2019-05-06T06:32:53.233Z,101335.70
2019-05-06T06:33:29.697Z,101331.98
2019-05-06T06:34:08.951Z,101333.81
2019-05-06T06:34:53.375Z,101349.63
2019-05-06T06:35:32.405Z,101330.57
2019-05-06T06:36:45.634Z,101317.34
2019-05-06T06:37:38.295Z,101318.64
2019-05-06T06:38:17.432Z,101324.91
2019-05-06T06:39:02.125Z,101326.13
2019-05-06T06:39:42.287Z,101323.89
2019-05-06T06:40:22.248Z,101323.89
2019-05-06T06:41:02.546Z,101311.28
2019-05-06T06:41:38.353Z,101311.28
2019-05-06T06:42:15.182Z,101286.09
2019-05-06T06:42:53.496Z,101200.70
2019-05-06T06:43:32.441Z,101200.81
2019-05-06T06:44:13.108Z,101196.48
2019-05-06T06:44:49.556Z,101193.45
2019-05-06T06:45:26.853Z,101191.41
2019-05-06T06:46:03.531Z,101198.84
2019-05-06T06:46:39.360Z,101170.41
2019-05-06T06:47:16.106Z,101192.27
2019-05-06T06:47:52.989Z,101188.30
2019-05-06T06:48:32.011Z,101198.39
2019-05-06T06:49:08.850Z,101198.08
2019-05-06T06:49:45.502Z,101190.00
2019-05-06T06:50:22.085Z,101193.27
2019-05-06T06:51:03.479Z,101184.23
2019-05-06T06:51:42.320Z,101186.66
2019-05-06T06:52:19.315Z,101186.66
2019-05-06T06:52:55.926Z,101189.94
2019-05-06T06:53:32.747Z,101198.62
2019-05-06T06:54:09.453Z,101190.48
2019-05-06T06:54:45.542Z,101185.08
2019-05-06T06:55:22.585Z,101184.65
2019-05-06T06:56:17.438Z,101194.67
2019-05-06T06:57:06.129Z,101192.90
2019-05-06T06:57:57.496Z,101186.13
2019-05-06T06:58:35.467Z,101189.78
2019-05-06T06:59:13.302Z,101182.07
2019-05-06T06:59:52.366Z,101183.42
2019-05-06T07:00:33.142Z,101176.61
2019-05-06T07:01:42.777Z,101182.08
2019-05-06T07:02:32.773Z,101188.89
2019-05-06T07:03:15.952Z,101182.53
2019-05-06T07:03:54.471Z,101183.47
2019-05-06T07:04:44.470Z,101183.44
2019-05-06T07:05:28.456Z,101179.77
2019-05-06T07:06:09.374Z,101188.43
2019-05-06T07:07:43.980Z,101176.95
2019-05-06T07:08:31.375Z,101181.06
2019-05-06T07:08:56.450Z,101187.88
2019-05-06T07:09:32.467Z,101184.67
2019-05-06T07:10:12.117Z,101174.66
2019-05-06T07:10:47.467Z,101174.17
2019-05-06T07:11:24.283Z,101173.22
2019-05-06T07:12:00.551Z,101175.02
2019-05-06T07:12:36.671Z,101171.34
2019-05-06T07:13:14.972Z,101179.48
2019-05-06T07:13:55.978Z,101179.48
2019-05-06T07:14:35.836Z,101179.44
2019-05-06T07:15:12.669Z,101176.20
2019-05-06T07:15:49.315Z,101174.34
2019-05-06T07:16:27.619Z,101179.31
2019-05-06T07:17:04.245Z,101163.33
2019-05-06T07:17:41.868Z,101163.33
2019-05-06T07:18:18.607Z,101170.59
2019-05-06T07:18:55.432Z,101174.66
2019-05-06T07:19:36.365Z,101174.14
2019-05-06T07:20:14.748Z,101170.92
2019-05-06T07:20:56.437Z,101170.41
2019-05-06T07:21:35.172Z,101171.27
2019-05-06T07:22:12.774Z,101173.07
2019-05-06T07:22:49.442Z,101176.70
2019-05-06T07:23:26.958Z,101167.53
2019-05-06T07:24:03.945Z,101167.02
2019-05-06T07:24:40.331Z,101168.36
2019-05-06T07:25:17.286Z,101166.47
2019-05-06T07:25:54.245Z,101168.27
2019-05-06T07:26:32.362Z,101170.09
2019-05-06T07:27:12.407Z,101166.38
2019-05-06T07:27:48.528Z,101165.43
2019-05-06T07:28:24.615Z,101168.59
2019-05-06T07:29:03.997Z,101168.50
2019-05-06T07:29:38.314Z,101168.50
2019-05-06T07:30:15.182Z,101164.80
2019-05-06T07:30:52.210Z,101164.27
2019-05-06T07:31:30.000Z,101159.25
2019-05-06T07:32:07.617Z,101164.20
2019-05-06T07:32:44.466Z,101144.51
2019-05-06T07:33:22.645Z,101144.51
2019-05-06T07:33:58.478Z,101158.60
2019-05-06T07:34:34.103Z,101154.91
2019-05-06T07:35:12.963Z,101160.81
2019-05-06T07:35:52.643Z,101160.31
2019-05-06T07:36:28.921Z,101154.29
2019-05-06T07:37:05.672Z,101161.14
2019-05-06T07:37:42.410Z,101162.93
2019-05-06T07:38:19.459Z,101161.97
2019-05-06T07:38:55.046Z,101165.13
2019-05-06T07:39:33.342Z,101164.63
2019-05-06T07:40:12.456Z,101165.97
2019-05-06T07:40:53.009Z,101167.75
2019-05-06T07:41:37.327Z,101171.36
2019-05-06T07:42:15.595Z,101167.20
2019-05-06T07:42:53.506Z,101156.18
2019-05-06T07:43:44.406Z,101156.18
2019-05-06T07:44:26.695Z,101165.69
2019-05-06T07:45:22.043Z,101164.28
2019-05-06T07:46:09.294Z,101163.32
2019-05-06T07:46:57.286Z,101165.11
2019-05-06T07:47:42.644Z,101166.47
2019-05-06T07:48:19.655Z,101165.05
2019-05-06T07:48:56.293Z,101164.13
2019-05-06T07:49:33.046Z,101167.29
2019-05-06T07:50:09.678Z,101166.78
2019-05-06T07:50:49.012Z,101161.70
2019-05-06T07:51:24.505Z,101171.76
2019-05-06T07:52:02.752Z,101169.42
2019-05-06T07:52:39.402Z,101170.75
2019-05-06T07:53:16.272Z,101172.07
2019-05-06T07:53:52.584Z,101167.90
2019-05-06T07:54:29.335Z,101166.48
2019-05-06T07:55:06.096Z,101166.42
2019-05-06T07:55:42.892Z,101164.09
2019-05-06T07:56:19.442Z,101164.50
2019-05-06T07:56:56.271Z,101167.19
2019-05-06T07:57:33.094Z,101161.69
2019-05-06T07:58:15.649Z,101166.67
2019-05-06T07:58:53.735Z,101168.45
2019-05-06T07:59:30.359Z,101161.07
2019-05-06T08:00:07.612Z,101160.10
2019-05-06T08:00:45.337Z,101163.26
2019-05-06T08:01:26.003Z,101162.78
2019-05-06T08:02:02.258Z,101162.27
2019-05-06T08:02:38.899Z,101165.89
2019-05-06T08:03:15.442Z,101161.71
2019-05-06T08:03:53.117Z,101162.57
2019-05-06T08:04:29.287Z,101153.81
2019-05-06T08:05:07.811Z,101153.80
2019-05-06T08:05:54.643Z,101153.27
2019-05-06T08:06:22.799Z,101151.42
2019-05-06T08:06:59.376Z,101153.62
2019-05-06T08:07:35.945Z,101151.31
2019-05-06T08:08:12.969Z,101149.89
2019-05-06T08:08:49.705Z,101159.91
2019-05-06T08:09:25.854Z,101148.91
2019-05-06T08:10:02.408Z,101153.48
2019-05-06T08:10:38.962Z,101152.97
2019-05-06T08:11:15.865Z,101146.95
2019-05-06T08:11:53.075Z,101155.15
2019-05-06T08:12:32.505Z,101158.80
2019-05-06T08:13:09.502Z,101153.70
2019-05-06T08:13:45.268Z,101166.48
2019-05-06T08:14:22.588Z,101153.59
2019-05-06T08:14:59.440Z,101165.94
2019-05-06T08:15:35.427Z,101154.88
2019-05-06T08:16:13.192Z,101161.25
2019-05-06T08:16:50.584Z,101162.11
2019-05-06T08:17:28.772Z,101157.00
2019-05-06T08:18:05.629Z,101157.00
2019-05-06T08:18:42.639Z,101159.23
2019-05-06T08:19:19.052Z,101155.09
2019-05-06T08:19:55.529Z,101147.70
2019-05-06T08:20:38.287Z,101140.80
2019-05-06T08:21:16.582Z,101140.80
2019-05-06T08:22:02.658Z,101147.59
2019-05-06T08:22:44.562Z,101146.67
2019-05-06T08:23:22.712Z,101148.84
2019-05-06T08:23:59.264Z,101138.34
2019-05-06T08:24:35.602Z,101150.14
2019-05-06T08:25:12.305Z,101146.86
2019-05-06T08:25:52.767Z,101146.86
2019-05-06T08:26:29.123Z,101153.67
2019-05-06T08:27:05.442Z,101149.03
2019-05-06T08:27:42.529Z,101146.27
2019-05-06T08:28:19.260Z,101153.53
2019-05-06T08:28:55.747Z,101153.53
2019-05-06T08:29:33.056Z,101150.70
2019-05-06T08:30:09.943Z,101150.66
2019-05-06T08:30:46.259Z,101154.27
2019-05-06T08:31:23.341Z,101150.12
2019-05-06T08:31:59.758Z,101148.72
2019-05-06T08:32:36.396Z,101154.63
2019-05-06T08:33:13.073Z,101152.27
2019-05-06T08:33:49.608Z,101157.72
2019-05-06T08:34:26.257Z,101160.92
2019-05-06T08:35:03.322Z,101154.97
2019-05-06T08:35:42.627Z,101164.05
2019-05-06T08:36:26.686Z,101159.41
2019-05-06T08:37:07.735Z,101162.14
2019-05-06T08:37:44.974Z,101158.41
2019-05-06T08:38:22.601Z,101157.89
2019-05-06T15:56:47.568Z,101063.46
2019-05-06T15:57:24.314Z,101059.48
2019-05-06T15:58:03.427Z,101059.48
2019-05-06T15:58:42.311Z,101061.60
2019-05-06T15:59:19.498Z,101093.78
2019-05-06T15:59:55.380Z,101093.78
2019-05-06T16:00:33.104Z,101169.64
2019-05-06T16:01:10.533Z,101202.43
2019-05-06T16:01:46.386Z,101202.43
2019-05-06T16:02:23.496Z,101207.08
2019-05-06T16:03:00.710Z,101190.63
2019-05-06T16:03:37.360Z,101192.64
2019-05-06T16:04:14.439Z,101192.64
2019-05-06T16:04:51.513Z,101180.72
2019-05-06T16:05:27.865Z,101185.09
2019-05-06T16:06:04.729Z,101192.70
2019-05-06T16:06:44.440Z,101192.76
2019-05-06T16:07:20.012Z,101182.73
2019-05-06T16:07:56.752Z,101204.38
2019-05-06T16:08:35.254Z,101164.17
2019-05-06T16:09:14.333Z,101164.16
2019-05-06T16:09:55.012Z,101168.98
2019-05-06T16:10:30.362Z,101184.25
2019-05-06T16:11:09.414Z,101187.37
2019-05-06T16:11:46.327Z,101179.91
2019-05-06T16:12:23.490Z,101186.07
2019-05-06T16:12:59.701Z,101188.36
2019-05-06T16:13:36.385Z,101188.36
2019-05-06T16:14:12.979Z,101195.81
2019-05-06T16:14:52.854Z,101201.89
2019-05-06T16:15:33.309Z,101195.20
2019-05-06T16:16:07.049Z,101149.45
2019-05-06T16:16:43.684Z,101179.94
2019-05-06T16:17:20.657Z,101176.85
2019-05-06T16:17:57.717Z,101203.45
2019-05-06T16:18:33.947Z,101192.16
2019-05-06T16:19:12.822Z,101183.19
2019-05-06T16:19:53.852Z,101191.97
2019-05-06T16:20:33.045Z,101173.78
2019-05-06T16:21:07.876Z,101190.77
2019-05-06T16:21:45.676Z,101177.58
2019-05-06T16:22:22.572Z,101173.05
2019-05-06T16:23:03.446Z,101180.89
2019-05-06T16:23:42.778Z,101183.24
2019-05-06T16:24:20.392Z,101176.50
2019-05-06T16:25:02.523Z,101162.86
2019-05-06T16:25:38.547Z,101175.20
2019-05-06T16:26:14.296Z,101156.09
2019-05-06T16:26:54.566Z,101194.03
2019-05-06T16:27:30.073Z,101189.11
2019-05-06T16:28:06.288Z,101189.11
2019-05-06T16:28:45.039Z,101175.04
2019-05-06T16:29:22.362Z,101169.57
2019-05-06T16:29:57.931Z,101177.36
2019-05-06T16:30:33.997Z,101182.37
2019-05-06T16:31:12.903Z,101176.94
2019-05-06T16:31:49.103Z,101123.62
2019-05-06T16:32:25.426Z,100996.08
2019-05-06T16:33:04.075Z,101087.26
2019-05-06T16:33:43.124Z,101076.34
2019-05-06T16:34:22.772Z,101072.72
2019-05-06T16:34:59.752Z,101042.63
2019-05-06T16:35:36.538Z,101023.47
2019-05-06T16:36:13.164Z,101027.11
2019-05-06T16:36:49.918Z,101031.17
2019-05-06T16:37:26.716Z,101025.66
